Time,TemperatureF,DewpointF,PressureIn,WindDirection,WindDirectionDegrees,WindSpeedMPH,WindSpeedGustMPH,Humidity,HourlyPrecipIn,Conditions,Clouds,dailyrainin,SoftwareType,DateUTC
2013-07-24 00:01:00,55.0,52.0,-100.00,ESE,105,2.0,4.0,89,-99.99,,,-99.99,,2013-07-24 08:01:00,
2013-07-24 00:12:00,55.0,52.0,-100.00,ESE,105,2.0,4.0,89,-99.99,,,-99.99,,2013-07-24 08:12:00,
2013-07-24 00:32:00,52.0,50.0,-100.00,ESE,105,3.0,5.0,93,-99.99,,,-99.99,,2013-07-24 08:32:00,
2013-07-24 00:43:00,52.0,50.0,-100.00,ESE,105,3.0,5.0,93,-99.99,,,-99.99,,2013-07-24 08:43:00,
2013-07-24 00:52:00,51.0,49.0,-100.00,East,100,4.0,5.0,95,-99.99,,,-99.99,,2013-07-24 08:52:00,
2013-07-24 01:02:00,51.0,49.0,-100.00,East,100,4.0,5.0,95,-99.99,,,-99.99,,2013-07-24 09:02:00,
2013-07-24 01:12:00,51.0,49.0,-100.00,East,100,4.0,5.0,95,-99.99,,,-99.99,,2013-07-24 09:12:00,
2013-07-24 01:22:00,51.0,49.0,-100.00,East,100,4.0,5.0,95,-99.99,,,-99.99,,2013-07-24 09:22:00,
2013-07-24 01:32:00,50.0,49.0,-100.00,East,85,3.0,6.0,96,-99.99,,,-99.99,,2013-07-24 09:32:00,
2013-07-24 01:43:00,50.0,49.0,-100.00,East,85,3.0,6.0,96,-99.99,,,-99.99,,2013-07-24 09:43:00,
2013-07-24 02:01:00,49.0,48.0,-100.00,East,95,4.0,5.0,97,-99.99,,,-99.99,,2013-07-24 10:01:00,
2013-07-24 02:12:00,49.0,48.0,-100.00,East,95,4.0,5.0,97,-99.99,,,-99.99,,2013-07-24 10:12:00,
2013-07-24 02:22:00,49.0,48.0,-100.00,East,95,4.0,5.0,97,-99.99,,,-99.99,,2013-07-24 10:22:00,
2013-07-24 02:32:00,48.0,47.0,-100.00,East,95,4.0,6.0,97,-99.99,,,-99.99,,2013-07-24 10:32:00,
2013-07-24 02:43:00,48.0,47.0,-100.00,East,95,4.0,6.0,97,-99.99,,,-99.99,,2013-07-24 10:43:00,
2013-07-24 03:01:00,47.0,47.0,-100.00,East,95,4.0,6.0,98,-99.99,,,-99.99,,2013-07-24 11:01:00,
2013-07-24 03:12:00,47.0,47.0,-100.00,East,95,4.0,6.0,98,-99.99,,,-99.99,,2013-07-24 11:12:00,
2013-07-24 03:32:00,46.0,45.0,-100.00,East,100,4.0,4.0,98,-99.99,,,-99.99,,2013-07-24 11:32:00,
2013-07-24 03:43:00,46.0,45.0,-100.00,East,100,4.0,4.0,98,-99.99,,,-99.99,,2013-07-24 11:43:00,
2013-07-24 04:02:00,45.0,45.0,-100.00,East,90,5.0,7.0,99,-99.99,,,-99.99,,2013-07-24 12:02:00,
2013-07-24 04:12:00,45.0,45.0,-100.00,East,90,5.0,7.0,99,-99.99,,,-99.99,,2013-07-24 12:12:00,
2013-07-24 04:22:00,45.0,45.0,-100.00,East,90,5.0,7.0,99,-99.99,,,-99.99,,2013-07-24 12:22:00,
2013-07-24 04:32:00,45.0,44.0,-100.00,East,95,4.0,7.0,99,-99.99,,,-99.99,,2013-07-24 12:32:00,
2013-07-24 04:42:00,45.0,44.0,-100.00,East,95,4.0,7.0,99,-99.99,,,-99.99,,2013-07-24 12:42:00,
2013-07-24 05:22:00,44.0,43.0,-100.00,East,90,6.0,7.0,99,-99.99,,,-99.99,,2013-07-24 13:22:00,
2013-07-24 05:32:00,44.0,43.0,-100.00,East,90,6.0,7.0,99,-99.99,,,-99.99,,2013-07-24 13:32:00,
2013-07-24 06:32:00,42.0,42.0,-100.00,East,95,6.0,6.0,99,-99.99,,,-99.99,,2013-07-24 14:32:00,
2013-07-24 06:43:00,42.0,42.0,-100.00,East,95,6.0,6.0,99,-99.99,,,-99.99,,2013-07-24 14:43:00,
2013-07-24 07:02:00,42.0,42.0,-100.00,East,100,6.0,7.0,99,-99.99,,,-99.99,,2013-07-24 15:02:00,
2013-07-24 07:12:00,42.0,42.0,-100.00,East,100,6.0,7.0,99,-99.99,,,-99.99,,2013-07-24 15:12:00,
2013-07-24 07:43:00,44.0,43.0,-100.00,East,85,4.0,7.0,99,-99.99,,,-99.99,,2013-07-24 15:43:00,
2013-07-24 07:53:00,46.0,46.0,-100.00,East,100,2.0,3.0,99,-99.99,,,-99.99,,2013-07-24 15:53:00,
2013-07-24 08:02:00,46.0,46.0,-100.00,East,100,2.0,3.0,99,-99.99,,,-99.99,,2013-07-24 16:02:00,
2013-07-24 08:12:00,46.0,46.0,-100.00,East,100,2.0,3.0,99,-99.99,,,-99.99,,2013-07-24 16:12:00,
2013-07-24 08:22:00,49.0,48.0,-100.00,East,95,3.0,5.0,97,-99.99,,,-99.99,,2013-07-24 16:22:00,
2013-07-24 08:32:00,49.0,48.0,-100.00,East,95,3.0,5.0,97,-99.99,,,-99.99,,2013-07-24 16:32:00,
2013-07-24 08:43:00,49.0,48.0,-100.00,East,95,3.0,5.0,97,-99.99,,,-99.99,,2013-07-24 16:43:00,
2013-07-24 08:53:00,55.0,53.0,-100.00,West,270,1.0,4.0,93,-99.99,,,-99.99,,2013-07-24 16:53:00,
2013-07-24 09:02:00,55.0,53.0,-100.00,West,270,1.0,4.0,93,-99.99,,,-99.99,,2013-07-24 17:02:00,
2013-07-24 09:12:00,55.0,53.0,-100.00,West,270,1.0,4.0,93,-99.99,,,-99.99,,2013-07-24 17:12:00,
2013-07-24 09:22:00,57.0,53.0,-100.00,WSW,245,3.0,4.0,84,-99.99,,,-99.99,,2013-07-24 17:22:00,
2013-07-24 09:30:00,59.0,53.0,-100.00,WSW,250,4.0,6.0,80,-99.99,,,-99.99,,2013-07-24 17:30:00,
2013-07-24 09:33:00,57.0,53.0,-100.00,WSW,245,3.0,4.0,84,-99.99,,,-99.99,,2013-07-24 17:33:00,
2013-07-24 09:43:00,57.0,53.0,-100.00,WSW,245,3.0,4.0,84,-99.99,,,-99.99,,2013-07-24 17:43:00,
2013-07-24 09:53:00,59.0,53.0,-100.00,WSW,250,4.0,6.0,80,-99.99,,,-99.99,,2013-07-24 17:53:00,
2013-07-24 10:02:00,59.0,53.0,-100.00,WSW,250,4.0,6.0,80,-99.99,,,-99.99,,2013-07-24 18:02:00,
2013-07-24 10:12:00,59.0,53.0,-100.00,WSW,250,4.0,6.0,80,-99.99,,,-99.99,,2013-07-24 18:12:00,
2013-07-24 10:22:00,59.0,53.0,-100.00,WSW,250,4.0,6.0,80,-99.99,,,-99.99,,2013-07-24 18:22:00,
2013-07-24 10:52:00,61.0,54.0,-100.00,WSW,255,4.0,6.0,77,-99.99,,,-99.99,,2013-07-24 18:52:00,
2013-07-24 11:02:00,61.0,54.0,-100.00,WSW,255,4.0,6.0,77,-99.99,,,-99.99,,2013-07-24 19:02:00,
2013-07-24 11:12:00,61.0,54.0,-100.00,WSW,255,4.0,6.0,77,-99.99,,,-99.99,,2013-07-24 19:12:00,
2013-07-24 11:22:00,61.0,54.0,-100.00,WSW,255,4.0,6.0,77,-99.99,,,-99.99,,2013-07-24 19:22:00,
2013-07-24 11:43:00,62.0,53.0,-100.00,WSW,250,4.0,6.0,72,-99.99,,,-99.99,,2013-07-24 19:43:00,
2013-07-24 11:53:00,66.0,51.0,-100.00,WNW,300,2.0,6.0,60,-99.99,,,-99.99,,2013-07-24 19:53:00,
2013-07-24 12:02:00,66.0,51.0,-100.00,WNW,300,2.0,6.0,60,-99.99,,,-99.99,,2013-07-24 20:02:00,
2013-07-24 12:13:00,66.0,51.0,-100.00,WNW,300,2.0,6.0,60,-99.99,,,-99.99,,2013-07-24 20:13:00,
2013-07-24 12:32:00,65.0,52.0,-100.00,WNW,300,4.0,7.0,63,-99.99,,,-99.99,,2013-07-24 20:32:00,
2013-07-24 12:42:00,65.0,52.0,-100.00,WNW,300,4.0,7.0,63,-99.99,,,-99.99,,2013-07-24 20:42:00,
2013-07-24 12:52:00,64.0,53.0,-100.00,WNW,295,2.0,6.0,66,-99.99,,,-99.99,,2013-07-24 20:52:00,
2013-07-24 13:02:00,64.0,53.0,-100.00,WNW,295,2.0,6.0,66,-99.99,,,-99.99,,2013-07-24 21:02:00,
2013-07-24 13:12:00,64.0,53.0,-100.00,WNW,295,2.0,6.0,66,-99.99,,,-99.99,,2013-07-24 21:12:00,
2013-07-24 13:32:00,64.0,53.0,-100.00,WNW,290,4.0,7.0,68,-99.99,,,-99.99,,2013-07-24 21:32:00,
2013-07-24 13:44:00,64.0,53.0,-100.00,WNW,290,4.0,7.0,68,-99.99,,,-99.99,,2013-07-24 21:44:00,
2013-07-24 14:02:00,65.0,52.0,-100.00,WNW,300,3.0,6.0,63,-99.99,,,-99.99,,2013-07-24 22:02:00,
2013-07-24 14:12:00,65.0,52.0,-100.00,WNW,300,3.0,6.0,63,-99.99,,,-99.99,,2013-07-24 22:12:00,
2013-07-24 14:43:00,65.0,51.0,-100.00,NW,305,2.0,6.0,59,-99.99,,,-99.99,,2013-07-24 22:43:00,
2013-07-24 14:53:00,66.0,51.0,-100.00,West,275,2.0,6.0,59,-99.99,,,-99.99,,2013-07-24 22:53:00,
2013-07-24 15:02:00,66.0,51.0,-100.00,West,275,2.0,6.0,59,-99.99,,,-99.99,,2013-07-24 23:02:00,
2013-07-24 15:12:00,66.0,51.0,-100.00,West,275,2.0,6.0,59,-99.99,,,-99.99,,2013-07-24 23:12:00,
2013-07-24 15:22:00,67.0,52.0,-100.00,West,275,2.0,6.0,59,-99.99,,,-99.99,,2013-07-24 23:22:00,
2013-07-24 15:32:00,67.0,52.0,-100.00,West,275,2.0,6.0,59,-99.99,,,-99.99,,2013-07-24 23:32:00,
2013-07-24 15:43:00,67.0,52.0,-100.00,West,275,2.0,6.0,59,-99.99,,,-99.99,,2013-07-24 23:43:00,
2013-07-24 16:01:00,67.0,51.0,-100.00,West,265,2.0,6.0,57,-99.99,,,-99.99,,2013-07-25 00:01:00,
2013-07-24 16:12:00,67.0,51.0,-100.00,West,265,2.0,6.0,57,-99.99,,,-99.99,,2013-07-25 00:12:00,
2013-07-24 16:32:00,65.0,51.0,-100.00,West,260,3.0,7.0,60,-99.99,,,-99.99,,2013-07-25 00:32:00,
2013-07-24 16:43:00,65.0,51.0,-100.00,West,260,3.0,7.0,60,-99.99,,,-99.99,,2013-07-25 00:43:00,
2013-07-24 17:02:00,65.0,51.0,-100.00,NW,305,6.0,7.0,59,-99.99,,,-99.99,,2013-07-25 01:02:00,
2013-07-24 17:12:00,65.0,51.0,-100.00,NW,305,6.0,7.0,59,-99.99,,,-99.99,,2013-07-25 01:12:00,
2013-07-24 17:32:00,65.0,52.0,-100.00,NW,310,4.0,9.0,62,-99.99,,,-99.99,,2013-07-25 01:32:00,
2013-07-24 17:42:00,65.0,52.0,-100.00,NW,310,4.0,9.0,62,-99.99,,,-99.99,,2013-07-25 01:42:00,
2013-07-24 18:02:00,68.0,54.0,-100.00,NW,315,1.0,4.0,62,-99.99,,,-99.99,,2013-07-25 02:02:00,
2013-07-24 18:12:00,68.0,54.0,-100.00,NW,315,1.0,4.0,62,-99.99,,,-99.99,,2013-07-25 02:12:00,
2013-07-24 18:22:00,71.0,53.0,-100.00,NW,320,3.0,4.0,53,-99.99,,,-99.99,,2013-07-25 02:22:00,
2013-07-24 18:33:00,71.0,53.0,-100.00,NW,320,3.0,4.0,53,-99.99,,,-99.99,,2013-07-25 02:33:00,
2013-07-24 18:43:00,71.0,53.0,-100.00,NW,320,3.0,4.0,53,-99.99,,,-99.99,,2013-07-25 02:43:00,
2013-07-24 19:02:00,71.0,53.0,-100.00,NW,310,2.0,5.0,54,-99.99,,,-99.99,,2013-07-25 03:02:00,
2013-07-24 19:39:00,74.0,53.0,-100.00,NW,310,2.0,6.0,48,-99.99,,,-99.99,,2013-07-25 03:39:00,
2013-07-24 19:44:00,74.0,53.0,-100.00,NW,310,2.0,6.0,48,-99.99,,,-99.99,,2013-07-25 03:44:00,
2013-07-24 20:22:00,75.0,53.0,-100.00,WSW,240,2.0,5.0,46,-99.99,,,-99.99,,2013-07-25 04:22:00,
2013-07-24 21:02:00,74.0,52.0,-100.00,East,85,2.0,7.0,47,-99.99,,,-99.99,,2013-07-25 05:02:00,
2013-07-24 21:12:00,74.0,52.0,-100.00,East,85,2.0,7.0,47,-99.99,,,-99.99,,2013-07-25 05:12:00,
2013-07-24 21:21:00,74.0,52.0,-100.00,East,85,2.0,7.0,47,-99.99,,,-99.99,,2013-07-25 05:21:00,
2013-07-24 22:12:00,71.0,53.0,-100.00,ESE,105,1.0,3.0,54,-99.99,,,-99.99,,2013-07-25 06:12:00,
2013-07-24 22:32:00,68.0,55.0,-100.00,East,90,2.0,4.0,64,-99.99,,,-99.99,,2013-07-25 06:32:00,
2013-07-24 22:42:00,68.0,55.0,-100.00,East,90,2.0,4.0,64,-99.99,,,-99.99,,2013-07-25 06:42:00,
2013-07-24 23:02:00,64.0,54.0,-100.00,East,80,2.0,6.0,69,-99.99,,,-99.99,,2013-07-25 07:02:00,
2013-07-24 23:12:00,64.0,54.0,-100.00,East,80,2.0,6.0,69,-99.99,,,-99.99,,2013-07-25 07:12:00,
2013-07-24 23:22:00,63.0,54.0,-100.00,East,95,3.0,5.0,71,-99.99,,,-99.99,,2013-07-25 07:22:00,
2013-07-24 23:32:00,63.0,54.0,-100.00,East,95,3.0,5.0,71,-99.99,,,-99.99,,2013-07-25 07:32:00,
2013-07-24 23:43:00,63.0,54.0,-100.00,East,95,3.0,5.0,71,-99.99,,,-99.99,,2013-07-25 07:43:00,
2013-07-24 23:53:00,63.0,54.0,-100.00,East,90,3.0,6.0,72,-99.99,,,-99.99,,2013-07-25 07:53:00,